sensor_id;sensor_type;location;lat;lon;timestamp;P1;durP1;ratioP1;P2;durP2;ratioP2
57339;SDS011;43174;50.930;18.170;2023-03-01T00:08:54;54.30;;;33.30;;
57339;SDS011;43174;50.930;18.170;2023-03-01T00:18:36;58.40;;;32.90;;
57339;SDS011;43174;50.930;18.170;2023-03-01T00:28:18;99.50;;;41.90;;
57339;SDS011;43174;50.930;18.170;2023-03-01T00:38:00;114.30;;;44.80;;
57339;SDS011;43174;50.930;18.170;2023-03-01T00:47:41;82.60;;;39.30;;
57339;SDS011;43174;50.930;18.170;2023-03-01T00:57:23;131.00;;;57.10;;
57339;SDS011;43174;50.930;18.170;2023-03-01T01:07:06;88.50;;;45.50;;
57339;SDS011;43174;50.930;18.170;2023-03-01T01:16:50;120.30;;;50.20;;
57339;SDS011;43174;50.930;18.170;2023-03-01T01:26:37;135.60;;;51.40;;
57339;SDS011;43174;50.930;18.170;2023-03-01T01:36:19;129.40;;;52.50;;
57339;SDS011;43174;50.930;18.170;2023-03-01T01:46:03;98.90;;;39.70;;
57339;SDS011;43174;50.930;18.170;2023-03-01T01:55:57;112.50;;;41.00;;
57339;SDS011;43174;50.930;18.170;2023-03-01T02:15:24;91.60;;;36.80;;
57339;SDS011;43174;50.930;18.170;2023-03-01T02:34:56;40.50;;;30.30;;
57339;SDS011;43174;50.930;18.170;2023-03-01T02:44:41;99.10;;;36.50;;
57339;SDS011;43174;50.930;18.170;2023-03-01T03:04:34;70.40;;;40.80;;
57339;SDS011;43174;50.930;18.170;2023-03-01T03:14:16;76.40;;;47.60;;
57339;SDS011;43174;50.930;18.170;2023-03-01T03:23:58;92.80;;;44.20;;
57339;SDS011;43174;50.930;18.170;2023-03-01T03:33:40;84.30;;;37.90;;
57339;SDS011;43174;50.930;18.170;2023-03-01T03:43:22;68.40;;;36.00;;
57339;SDS011;43174;50.930;18.170;2023-03-01T03:53:06;105.20;;;39.90;;
57339;SDS011;43174;50.930;18.170;2023-03-01T04:02:52;54.60;;;38.60;;
57339;SDS011;43174;50.930;18.170;2023-03-01T04:12:37;82.60;;;25.60;;
57339;SDS011;43174;50.930;18.170;2023-03-01T04:22:31;41.50;;;33.10;;
57339;SDS011;43174;50.930;18.170;2023-03-01T04:32:13;31.80;;;25.60;;
57339;SDS011;43174;50.930;18.170;2023-03-01T04:41:58;88.10;;;40.70;;
57339;SDS011;43174;50.930;18.170;2023-03-01T04:51:41;81.60;;;40.10;;
57339;SDS011;43174;50.930;18.170;2023-03-01T05:01:25;100.90;;;49.00;;
57339;SDS011;43174;50.930;18.170;2023-03-01T05:11:08;119.30;;;53.50;;
57339;SDS011;43174;50.930;18.170;2023-03-01T05:20:52;78.40;;;48.20;;
57339;SDS011;43174;50.930;18.170;2023-03-01T05:30:38;189.30;;;53.40;;
57339;SDS011;43174;50.930;18.170;2023-03-01T05:40:29;84.60;;;37.40;;
57339;SDS011;43174;50.930;18.170;2023-03-01T05:50:18;115.00;;;48.90;;
57339;SDS011;43174;50.930;18.170;2023-03-01T06:00:02;62.20;;;39.60;;
57339;SDS011;43174;50.930;18.170;2023-03-01T06:09:45;96.90;;;53.10;;
57339;SDS011;43174;50.930;18.170;2023-03-01T06:19:29;97.50;;;52.90;;
57339;SDS011;43174;50.930;18.170;2023-03-01T06:29:11;93.10;;;43.60;;
57339;SDS011;43174;50.930;18.170;2023-03-01T06:38:53;125.60;;;41.10;;
57339;SDS011;43174;50.930;18.170;2023-03-01T06:48:35;63.90;;;35.70;;
57339;SDS011;43174;50.930;18.170;2023-03-01T06:58:17;60.60;;;31.20;;
57339;SDS011;43174;50.930;18.170;2023-03-01T07:08:00;70.10;;;44.70;;
57339;SDS011;43174;50.930;18.170;2023-03-01T07:17:43;117.90;;;70.40;;
57339;SDS011;43174;50.930;18.170;2023-03-01T07:27:25;111.10;;;74.70;;
57339;SDS011;43174;50.930;18.170;2023-03-01T07:37:07;102.80;;;65.00;;
57339;SDS011;43174;50.930;18.170;2023-03-01T07:46:48;87.00;;;60.60;;
57339;SDS011;43174;50.930;18.170;2023-03-01T07:56:30;84.50;;;56.20;;
57339;SDS011;43174;50.930;18.170;2023-03-01T08:06:12;68.50;;;36.60;;
57339;SDS011;43174;50.930;18.170;2023-03-01T08:16:00;19.50;;;17.80;;
57339;SDS011;43174;50.930;18.170;2023-03-01T08:25:41;52.90;;;38.80;;
57339;SDS011;43174;50.930;18.170;2023-03-01T08:35:24;39.90;;;34.80;;
57339;SDS011;43174;50.930;18.170;2023-03-01T08:45:06;41.90;;;33.20;;
57339;SDS011;43174;50.930;18.170;2023-03-01T08:54:49;40.20;;;32.50;;
57339;SDS011;43174;50.930;18.170;2023-03-01T09:04:32;45.10;;;31.40;;
57339;SDS011;43174;50.930;18.170;2023-03-01T09:14:16;30.80;;;27.60;;
57339;SDS011;43174;50.930;18.170;2023-03-01T09:23:57;25.90;;;23.50;;
57339;SDS011;43174;50.930;18.170;2023-03-01T09:33:40;30.50;;;24.30;;
57339;SDS011;43174;50.930;18.170;2023-03-01T09:53:15;26.20;;;23.80;;
57339;SDS011;43174;50.930;18.170;2023-03-01T10:10:23;26.20;;;23.80;;
57339;SDS011;43174;50.930;18.170;2023-03-01T10:20:43;25.50;;;22.40;;
57339;SDS011;43174;50.930;18.170;2023-03-01T10:30:17;33.10;;;23.10;;
57339;SDS011;43174;50.930;18.170;2023-03-01T10:40:07;24.10;;;21.50;;
57339;SDS011;43174;50.930;18.170;2023-03-01T10:50:00;32.80;;;28.50;;
57339;SDS011;43174;50.930;18.170;2023-03-01T10:59:42;35.00;;;29.20;;
57339;SDS011;43174;50.930;18.170;2023-03-01T11:09:32;21.90;;;19.80;;
57339;SDS011;43174;50.930;18.170;2023-03-01T11:19:20;27.60;;;24.80;;
57339;SDS011;43174;50.930;18.170;2023-03-01T11:29:04;25.90;;;21.80;;
57339;SDS011;43174;50.930;18.170;2023-03-01T11:38:47;27.60;;;24.30;;
57339;SDS011;43174;50.930;18.170;2023-03-01T11:58:36;30.80;;;24.80;;
57339;SDS011;43174;50.930;18.170;2023-03-01T12:08:49;27.40;;;24.70;;
57339;SDS011;43174;50.930;18.170;2023-03-01T12:58:07;19.70;;;17.60;;
57339;SDS011;43174;50.930;18.170;2023-03-01T13:17:40;44.00;;;25.80;;
57339;SDS011;43174;50.930;18.170;2023-03-01T13:27:23;27.30;;;25.00;;
57339;SDS011;43174;50.930;18.170;2023-03-01T13:37:18;25.10;;;22.60;;
57339;SDS011;43174;50.930;18.170;2023-03-01T13:56:55;21.40;;;19.50;;
57339;SDS011;43174;50.930;18.170;2023-03-01T14:06:38;22.10;;;20.40;;
57339;SDS011;43174;50.930;18.170;2023-03-01T14:26:21;20.20;;;18.30;;
57339;SDS011;43174;50.930;18.170;2023-03-01T14:36:09;26.80;;;24.30;;
57339;SDS011;43174;50.930;18.170;2023-03-01T14:45:52;18.50;;;13.90;;
57339;SDS011;43174;50.930;18.170;2023-03-01T14:55:37;17.80;;;16.00;;
57339;SDS011;43174;50.930;18.170;2023-03-01T15:05:24;18.80;;;17.60;;
57339;SDS011;43174;50.930;18.170;2023-03-01T15:25:18;23.10;;;20.70;;
57339;SDS011;43174;50.930;18.170;2023-03-01T15:55:21;24.20;;;20.60;;
57339;SDS011;43174;50.930;18.170;2023-03-01T16:05:41;22.40;;;20.60;;
57339;SDS011;43174;50.930;18.170;2023-03-01T16:15:21;26.80;;;22.70;;
57339;SDS011;43174;50.930;18.170;2023-03-01T16:25:08;30.80;;;27.50;;
57339;SDS011;43174;50.930;18.170;2023-03-01T16:34:52;56.70;;;36.10;;
57339;SDS011;43174;50.930;18.170;2023-03-01T16:44:41;35.70;;;20.80;;
57339;SDS011;43174;50.930;18.170;2023-03-01T16:54:24;40.40;;;24.20;;
57339;SDS011;43174;50.930;18.170;2023-03-01T17:04:10;60.30;;;29.70;;
57339;SDS011;43174;50.930;18.170;2023-03-01T17:13:53;118.00;;;40.80;;
57339;SDS011;43174;50.930;18.170;2023-03-01T17:23:36;89.20;;;29.70;;
57339;SDS011;43174;50.930;18.170;2023-03-01T17:33:20;47.50;;;30.70;;
57339;SDS011;43174;50.930;18.170;2023-03-01T17:43:04;47.90;;;19.90;;
57339;SDS011;43174;50.930;18.170;2023-03-01T17:52:46;18.50;;;16.70;;
57339;SDS011;43174;50.930;18.170;2023-03-01T18:02:28;22.90;;;20.50;;
57339;SDS011;43174;50.930;18.170;2023-03-01T18:12:12;21.60;;;20.00;;
57339;SDS011;43174;50.930;18.170;2023-03-01T18:22:01;26.60;;;21.80;;
57339;SDS011;43174;50.930;18.170;2023-03-01T18:31:43;51.30;;;27.00;;
57339;SDS011;43174;50.930;18.170;2023-03-01T18:41:27;35.30;;;20.00;;
57339;SDS011;43174;50.930;18.170;2023-03-01T18:51:15;72.20;;;31.00;;
57339;SDS011;43174;50.930;18.170;2023-03-01T19:00:59;52.50;;;29.70;;
57339;SDS011;43174;50.930;18.170;2023-03-01T19:10:53;53.50;;;34.10;;
57339;SDS011;43174;50.930;18.170;2023-03-01T19:20:38;78.50;;;26.60;;
57339;SDS011;43174;50.930;18.170;2023-03-01T19:23:04;112.50;;;45.60;;
57339;SDS011;43174;50.930;18.170;2023-03-01T19:32:48;113.90;;;45.30;;
57339;SDS011;43174;50.930;18.170;2023-03-01T19:42:32;75.70;;;33.50;;
57339;SDS011;43174;50.930;18.170;2023-03-01T19:52:15;85.90;;;39.70;;
57339;SDS011;43174;50.930;18.170;2023-03-01T20:01:58;118.30;;;35.20;;
57339;SDS011;43174;50.930;18.170;2023-03-01T20:11:42;156.80;;;57.20;;
57339;SDS011;43174;50.930;18.170;2023-03-01T20:21:27;72.30;;;33.80;;
57339;SDS011;43174;50.930;18.170;2023-03-01T20:31:11;73.00;;;28.10;;
57339;SDS011;43174;50.930;18.170;2023-03-01T20:40:56;31.10;;;27.80;;
57339;SDS011;43174;50.930;18.170;2023-03-01T20:50:39;141.80;;;44.60;;
57339;SDS011;43174;50.930;18.170;2023-03-01T21:00:22;89.20;;;39.30;;
57339;SDS011;43174;50.930;18.170;2023-03-01T21:10:05;74.50;;;30.70;;
57339;SDS011;43174;50.930;18.170;2023-03-01T21:19:48;31.20;;;28.30;;
57339;SDS011;43174;50.930;18.170;2023-03-01T21:29:41;129.30;;;50.30;;
57339;SDS011;43174;50.930;18.170;2023-03-01T21:39:24;164.40;;;56.60;;
57339;SDS011;43174;50.930;18.170;2023-03-01T21:49:12;74.60;;;37.80;;
57339;SDS011;43174;50.930;18.170;2023-03-01T21:58:56;137.10;;;55.20;;
57339;SDS011;43174;50.930;18.170;2023-03-01T22:08:51;64.90;;;37.00;;
57339;SDS011;43174;50.930;18.170;2023-03-01T22:18:35;95.50;;;49.00;;
57339;SDS011;43174;50.930;18.170;2023-03-01T22:28:17;158.40;;;50.60;;
57339;SDS011;43174;50.930;18.170;2023-03-01T22:45:18;157.80;;;57.30;;
57339;SDS011;43174;50.930;18.170;2023-03-01T22:55:04;160.60;;;69.60;;
57339;SDS011;43174;50.930;18.170;2023-03-01T23:04:47;115.30;;;56.70;;
57339;SDS011;43174;50.930;18.170;2023-03-01T23:12:05;252.40;;;91.20;;
57339;SDS011;43174;50.930;18.170;2023-03-01T23:21:50;229.80;;;47.00;;
57339;SDS011;43174;50.930;18.170;2023-03-01T23:31:35;211.00;;;64.60;;
57339;SDS011;43174;50.930;18.170;2023-03-01T23:41:18;210.00;;;59.00;;
57339;SDS011;43174;50.930;18.170;2023-03-01T23:51:04;111.50;;;50.30;;
